createdAt,value
2023-01-17T00:02:04.330Z,65.89
2023-01-17T00:05:24.997Z,65.95
2023-01-17T00:08:55.117Z,65.64
2023-01-17T00:11:57.653Z,66.08
2023-01-17T00:15:00.614Z,66.17
2023-01-17T00:18:02.085Z,66.22
2023-01-17T00:21:22.121Z,66.23
2023-01-17T00:24:41.955Z,66.42
2023-01-17T00:27:43.416Z,66.35
2023-01-17T00:30:45.705Z,66.36
2023-01-17T00:33:47.127Z,66.30
2023-01-17T00:36:48.559Z,66.37
2023-01-17T00:39:50.006Z,66.82
2023-01-17T00:42:51.442Z,66.59
2023-01-17T00:46:12.023Z,66.47
2023-01-17T00:49:32.260Z,66.39
2023-01-17T00:52:52.287Z,66.26
2023-01-17T00:56:12.025Z,66.25
2023-01-17T00:59:31.926Z,66.08
2023-01-17T01:02:53.432Z,66.13
2023-01-17T01:06:13.374Z,66.20
2023-01-17T01:09:33.209Z,66.04
2023-01-17T01:12:53.201Z,66.01
2023-01-17T01:16:13.168Z,66.09
2023-01-17T01:19:33.391Z,66.16
2023-01-17T01:22:53.399Z,66.09
2023-01-17T01:26:13.260Z,66.50
2023-01-17T01:29:33.172Z,66.16
2023-01-17T01:32:53.988Z,66.20
2023-01-17T01:35:58.374Z,66.25
2023-01-17T01:38:59.977Z,66.22
2023-01-17T01:42:03.137Z,66.15
2023-01-17T01:45:29.253Z,66.09
2023-01-17T01:48:41.877Z,66.01
2023-01-17T01:51:55.809Z,66.00
2023-01-17T01:55:07.285Z,65.99
2023-01-17T01:58:14.974Z,66.07
2023-01-17T02:01:17.905Z,65.87
2023-01-17T02:04:20.651Z,65.86
2023-01-17T02:07:28.539Z,65.82
2023-01-17T02:10:39.127Z,65.73
2023-01-17T02:13:40.893Z,65.74
2023-01-17T02:16:44.237Z,65.70
2023-01-17T02:20:04.226Z,65.57
2023-01-17T02:23:17.841Z,65.53
2023-01-17T02:26:34.357Z,65.54
2023-01-17T02:29:47.889Z,65.52
2023-01-17T02:33:14.126Z,65.41
2023-01-17T02:36:56.458Z,65.49
2023-01-17T02:40:04.705Z,65.58
2023-01-17T02:43:11.245Z,65.68
2023-01-17T02:46:12.770Z,65.67
2023-01-17T02:49:17.939Z,65.68
2023-01-17T02:52:37.466Z,65.70
2023-01-17T02:56:00.103Z,65.75
2023-01-17T02:59:15.394Z,65.77
2023-01-17T03:02:40.789Z,65.62
2023-01-17T03:05:57.899Z,65.65
2023-01-17T03:08:59.229Z,65.61
2023-01-17T03:12:00.774Z,65.74
2023-01-17T03:15:02.583Z,65.88
2023-01-17T03:18:11.181Z,66.02
2023-01-17T03:21:12.710Z,65.89
2023-01-17T03:24:14.168Z,65.83
2023-01-17T03:27:15.711Z,65.97
2023-01-17T03:30:17.737Z,65.93
2023-01-17T03:33:19.396Z,66.03
2023-01-17T03:36:20.843Z,66.04
2023-01-17T03:39:22.365Z,65.98
2023-01-17T03:42:23.923Z,65.87
2023-01-17T03:45:25.397Z,65.94
2023-01-17T03:48:26.849Z,65.80
2023-01-17T03:51:28.428Z,65.90
2023-01-17T03:54:29.932Z,65.91
2023-01-17T03:57:31.443Z,66.00
2023-01-17T04:00:32.966Z,66.10
2023-01-17T04:03:34.494Z,66.16
2023-01-17T04:06:35.985Z,66.16
2023-01-17T04:09:37.503Z,66.32
2023-01-17T04:12:38.990Z,66.37
2023-01-17T04:15:40.634Z,66.47
2023-01-17T04:18:42.280Z,66.43
2023-01-17T04:21:43.886Z,66.58
2023-01-17T04:24:45.401Z,66.65
2023-01-17T04:27:46.916Z,66.82
2023-01-17T04:30:48.456Z,66.82
2023-01-17T04:33:49.944Z,66.86
2023-01-17T04:36:51.490Z,67.11
2023-01-17T04:39:52.965Z,66.95
2023-01-17T04:42:54.477Z,66.83
2023-01-17T04:45:57.442Z,66.88
2023-01-17T04:49:00.411Z,66.81
2023-01-17T04:52:01.923Z,66.89
2023-01-17T04:55:03.653Z,66.80
2023-01-17T04:58:05.176Z,66.92
2023-01-17T05:01:08.318Z,66.78
2023-01-17T05:04:09.908Z,66.85
2023-01-17T05:07:11.394Z,66.79
2023-01-17T05:10:12.941Z,66.83
2023-01-17T05:13:14.976Z,66.78
2023-01-17T05:16:19.676Z,66.92
2023-01-17T05:19:21.644Z,66.88
2023-01-17T05:22:23.166Z,66.83
2023-01-17T05:25:27.614Z,66.91
2023-01-17T05:28:29.210Z,67.15
2023-01-17T05:31:30.681Z,67.08
2023-01-17T05:34:32.334Z,67.20
2023-01-17T05:37:33.812Z,67.17
2023-01-17T05:40:35.425Z,67.25
2023-01-17T05:43:36.876Z,67.27
2023-01-17T05:46:38.424Z,67.31
2023-01-17T05:49:39.980Z,67.29
2023-01-17T05:52:41.612Z,67.34
2023-01-17T05:55:43.895Z,67.38
2023-01-17T05:58:45.513Z,67.52
2023-01-17T06:01:47.058Z,67.35
2023-01-17T06:04:48.605Z,67.82
2023-01-17T06:07:50.821Z,67.31
2023-01-17T06:10:52.390Z,67.39
2023-01-17T06:13:53.834Z,67.26
2023-01-17T06:16:55.279Z,67.21
2023-01-17T06:19:56.807Z,67.11
2023-01-17T06:23:01.311Z,67.06
2023-01-17T06:26:04.433Z,67.02
2023-01-17T06:29:05.931Z,66.91
2023-01-17T06:32:07.450Z,66.79
2023-01-17T06:35:09.272Z,66.70
2023-01-17T06:38:10.796Z,66.74
2023-01-17T06:41:12.241Z,66.60
2023-01-17T06:44:13.783Z,66.61
2023-01-17T06:47:15.265Z,66.58
2023-01-17T06:50:16.970Z,66.42
2023-01-17T06:53:18.474Z,66.44
2023-01-17T06:56:20.607Z,66.19
2023-01-17T06:59:22.114Z,66.21
2023-01-17T07:02:23.570Z,66.17
2023-01-17T07:05:25.214Z,66.01
2023-01-17T07:08:26.750Z,66.00
2023-01-17T07:11:28.360Z,65.90
2023-01-17T07:14:29.951Z,65.98
2023-01-17T07:17:31.422Z,65.93
2023-01-17T07:20:33.271Z,65.86
2023-01-17T07:23:34.735Z,65.87
2023-01-17T07:26:37.970Z,65.74
2023-01-17T07:29:39.419Z,65.57
2023-01-17T07:32:40.932Z,65.70
2023-01-17T07:35:42.987Z,65.69
2023-01-17T07:38:48.703Z,65.69
2023-01-17T07:41:50.192Z,65.61
2023-01-17T07:44:54.057Z,65.83
2023-01-17T07:47:58.685Z,65.58
2023-01-17T07:51:00.278Z,65.45
2023-01-17T07:54:01.738Z,65.71
2023-01-17T07:57:03.800Z,65.18
2023-01-17T08:00:05.934Z,65.30
2023-01-17T08:03:17.431Z,65.32
2023-01-17T08:06:22.222Z,65.37
2023-01-17T08:09:23.712Z,65.27
2023-01-17T08:12:25.983Z,65.38
2023-01-17T08:15:27.536Z,65.31
2023-01-17T08:18:29.943Z,65.30
2023-01-17T08:21:31.513Z,65.30
2023-01-17T08:24:33.253Z,65.26
2023-01-17T08:27:36.234Z,65.31
2023-01-17T08:30:38.004Z,65.30
2023-01-17T08:33:39.481Z,65.32
2023-01-17T08:36:42.832Z,65.29
2023-01-17T08:39:44.328Z,65.31
2023-01-17T08:42:54.342Z,65.02
2023-01-17T08:45:56.044Z,65.23
2023-01-17T08:48:59.014Z,65.15
2023-01-17T08:52:00.577Z,65.33
2023-01-17T08:55:02.251Z,65.22
2023-01-17T08:58:03.722Z,65.32
2023-01-17T09:01:06.431Z,65.25
2023-01-17T09:04:08.958Z,65.25
2023-01-17T09:07:10.662Z,65.21
2023-01-17T09:10:12.479Z,65.31
2023-01-17T09:13:14.026Z,65.21
2023-01-17T09:16:15.556Z,65.29
2023-01-17T09:19:17.100Z,65.31
2023-01-17T09:22:18.691Z,65.48
2023-01-17T09:25:20.157Z,65.32
2023-01-17T09:28:21.900Z,65.77
2023-01-17T09:31:24.409Z,65.69
2023-01-17T09:34:26.643Z,65.81
2023-01-17T09:37:28.157Z,65.90
2023-01-17T09:40:30.129Z,65.81
2023-01-17T09:43:39.003Z,65.94
2023-01-17T09:46:46.590Z,66.01
2023-01-17T09:49:48.044Z,65.85
2023-01-17T09:52:49.616Z,66.11
2023-01-17T09:56:19.552Z,66.09
2023-01-17T09:59:33.152Z,66.36
2023-01-17T10:02:46.332Z,66.40
2023-01-17T10:06:01.222Z,66.50
2023-01-17T10:09:12.210Z,66.37
2023-01-17T10:12:19.858Z,66.69
2023-01-17T10:15:36.118Z,66.89
2023-01-17T10:19:03.833Z,66.71
2023-01-17T10:22:23.357Z,66.89
2023-01-17T10:25:38.377Z,66.91
2023-01-17T10:28:46.668Z,66.86
2023-01-17T10:31:54.207Z,66.94
2023-01-17T10:35:02.136Z,67.00
2023-01-17T10:38:10.318Z,66.95
2023-01-17T10:41:21.428Z,67.04
2023-01-17T10:44:38.555Z,66.92
2023-01-17T10:47:44.342Z,66.96
2023-01-17T10:50:59.551Z,66.72
2023-01-17T10:54:04.158Z,66.89
2023-01-17T10:57:16.043Z,66.84
2023-01-17T11:00:40.033Z,66.97
2023-01-17T11:03:43.950Z,66.94
2023-01-17T11:06:57.854Z,67.07
2023-01-17T11:09:59.849Z,67.21
2023-01-17T11:13:01.565Z,67.18
2023-01-17T11:16:27.543Z,67.05
2023-01-17T11:19:36.074Z,67.16
2023-01-17T11:22:37.851Z,67.15
2023-01-17T11:25:39.445Z,67.42
2023-01-17T11:28:41.435Z,67.30
2023-01-17T11:31:42.943Z,67.37
2023-01-17T11:34:44.435Z,67.46
2023-01-17T11:38:10.671Z,67.30
2023-01-17T11:41:20.608Z,67.35
2023-01-17T11:44:22.079Z,67.10
2023-01-17T11:47:23.676Z,67.26
2023-01-17T11:50:26.412Z,64.51
2023-01-17T11:53:38.095Z,62.36
2023-01-17T11:56:44.035Z,60.49
2023-01-17T11:59:47.554Z,56.76
2023-01-17T12:03:18.146Z,51.97
2023-01-17T12:06:28.721Z,50.83
2023-01-17T12:09:45.104Z,51.46
2023-01-17T12:13:08.095Z,50.26
2023-01-17T12:16:47.863Z,50.74
2023-01-17T12:20:01.313Z,51.08
2023-01-17T12:23:34.346Z,53.09
2023-01-17T12:26:35.833Z,53.65
2023-01-17T12:29:49.455Z,50.99
2023-01-17T12:33:28.200Z,52.57
2023-01-17T12:36:49.431Z,51.73
2023-01-17T12:40:10.296Z,50.35
2023-01-17T12:43:21.492Z,49.10
2023-01-17T12:46:38.447Z,48.98
2023-01-17T12:49:46.498Z,48.71
2023-01-17T12:53:07.292Z,47.27
2023-01-17T12:56:24.704Z,48.42
2023-01-17T12:59:42.632Z,48.25
2023-01-17T13:02:53.133Z,49.61
2023-01-17T13:05:57.442Z,49.44
2023-01-17T13:09:02.154Z,50.15
2023-01-17T13:12:15.962Z,50.04
2023-01-17T13:15:24.778Z,51.17
2023-01-17T13:18:29.606Z,49.48
2023-01-17T13:21:33.525Z,49.18
2023-01-17T13:24:37.873Z,50.42
2023-01-17T13:28:04.324Z,52.25
2023-01-17T13:31:30.434Z,54.18
2023-01-17T13:34:56.567Z,55.51
2023-01-17T13:38:28.505Z,56.09
2023-01-17T13:41:42.122Z,56.56
2023-01-17T13:44:45.461Z,56.82
2023-01-17T13:47:47.092Z,57.11
2023-01-17T13:50:52.890Z,57.41
2023-01-17T13:53:54.891Z,57.62
2023-01-17T13:57:30.265Z,57.93
2023-01-17T14:00:43.924Z,58.10
2023-01-17T14:03:54.301Z,58.35
2023-01-17T14:06:59.400Z,58.57
2023-01-17T14:10:01.249Z,58.52
2023-01-17T14:13:05.499Z,58.75
2023-01-17T14:16:22.128Z,58.93
2023-01-17T14:19:27.013Z,58.89
2023-01-17T14:22:33.397Z,59.20
2023-01-17T14:25:41.677Z,59.49
2023-01-17T14:28:43.168Z,59.62
2023-01-17T14:31:45.073Z,59.55
2023-01-17T14:34:48.872Z,59.92
2023-01-17T14:37:54.414Z,59.79
2023-01-17T14:41:01.964Z,60.09
2023-01-17T14:44:03.891Z,60.06
2023-01-17T14:47:05.605Z,60.16
2023-01-17T14:50:23.512Z,60.38
2023-01-17T14:53:28.501Z,60.40
2023-01-17T14:56:31.250Z,60.52
2023-01-17T14:59:32.738Z,60.63
2023-01-17T15:02:34.551Z,60.69
2023-01-17T15:05:41.067Z,60.79
2023-01-17T15:08:42.909Z,60.98
2023-01-17T15:11:45.916Z,60.95
2023-01-17T15:14:47.558Z,61.05
2023-01-17T15:17:49.067Z,61.01
2023-01-17T15:21:06.923Z,61.05
2023-01-17T15:24:25.103Z,61.16
2023-01-17T15:27:26.995Z,61.34
2023-01-17T15:30:28.578Z,61.45
2023-01-17T15:33:31.998Z,61.45
2023-01-17T15:36:34.556Z,61.55
2023-01-17T15:39:38.882Z,61.65
2023-01-17T15:42:43.389Z,61.60
2023-01-17T15:45:55.460Z,61.59
2023-01-17T15:49:08.577Z,61.66
2023-01-17T15:52:15.466Z,61.73
2023-01-17T15:55:23.850Z,61.66
2023-01-17T15:58:28.425Z,61.80
2023-01-17T16:01:30.104Z,61.91
2023-01-17T16:04:37.164Z,61.92
2023-01-17T16:07:38.798Z,62.04
2023-01-17T16:10:40.905Z,62.09
2023-01-17T16:13:43.264Z,62.20
2023-01-17T16:16:54.184Z,60.69
2023-01-17T16:19:55.823Z,58.90
2023-01-17T16:22:57.318Z,58.29
2023-01-17T16:25:58.803Z,57.34
2023-01-17T16:29:00.290Z,58.97
2023-01-17T16:32:08.525Z,59.72
2023-01-17T16:35:18.924Z,60.23
2023-01-17T16:38:20.520Z,60.55
2023-01-17T16:41:22.080Z,60.76
2023-01-17T16:44:23.545Z,60.90
2023-01-17T16:47:25.000Z,61.00
2023-01-17T16:50:26.470Z,61.14
2023-01-17T16:53:28.437Z,61.15
2023-01-17T16:56:30.094Z,61.19
2023-01-17T16:59:45.937Z,61.13
2023-01-17T17:02:52.095Z,61.20
2023-01-17T17:05:59.070Z,61.25
2023-01-17T17:09:00.542Z,61.39
2023-01-17T17:12:02.072Z,61.57
2023-01-17T17:15:04.206Z,60.22
2023-01-17T17:18:05.737Z,60.82
2023-01-17T17:21:07.464Z,61.27
2023-01-17T17:24:12.750Z,61.54
2023-01-17T17:27:14.313Z,61.80
2023-01-17T17:30:16.066Z,62.17
2023-01-17T17:33:17.598Z,62.43
2023-01-17T17:36:19.259Z,62.63
2023-01-17T17:39:20.868Z,62.73
2023-01-17T17:42:23.033Z,62.81
2023-01-17T17:45:24.568Z,63.01
2023-01-17T17:48:26.098Z,63.12
2023-01-17T17:51:29.106Z,63.17
2023-01-17T17:54:30.586Z,63.29
2023-01-17T17:57:32.058Z,63.28
2023-01-17T18:00:33.638Z,63.35
2023-01-17T18:03:35.194Z,63.41
2023-01-17T18:06:38.544Z,63.51
2023-01-17T18:09:40.049Z,63.62
2023-01-17T18:12:41.497Z,63.57
2023-01-17T18:15:42.998Z,63.69
2023-01-17T18:18:47.545Z,63.66
2023-01-17T18:21:52.808Z,63.73
2023-01-17T18:24:54.300Z,63.88
2023-01-17T18:27:55.918Z,63.62
2023-01-17T18:30:57.728Z,63.78
2023-01-17T18:34:03.116Z,63.87
2023-01-17T18:37:04.645Z,64.02
2023-01-17T18:40:07.079Z,64.00
2023-01-17T18:43:08.530Z,64.55
2023-01-17T18:46:11.024Z,64.19
2023-01-17T18:49:15.284Z,64.17
2023-01-17T18:52:19.356Z,64.18
2023-01-17T18:55:21.235Z,64.33
2023-01-17T18:58:23.962Z,64.35
2023-01-17T19:01:30.756Z,64.19
2023-01-17T19:04:33.932Z,64.50
2023-01-17T19:07:35.748Z,64.55
2023-01-17T19:10:37.213Z,64.48
2023-01-17T19:13:40.351Z,64.41
2023-01-17T19:16:42.654Z,64.52
2023-01-17T19:19:44.900Z,64.54
2023-01-17T19:22:46.402Z,64.43
2023-01-17T19:25:53.649Z,64.58
2023-01-17T19:28:57.525Z,64.46
2023-01-17T19:31:59.195Z,64.53
2023-01-17T19:35:00.659Z,64.49
2023-01-17T19:38:02.140Z,64.53
2023-01-17T19:41:08.957Z,64.46
2023-01-17T19:44:12.624Z,64.48
2023-01-17T19:47:14.125Z,64.58
2023-01-17T19:50:18.556Z,64.60
2023-01-17T19:53:21.300Z,64.71
2023-01-17T19:56:25.433Z,64.85
2023-01-17T19:59:27.105Z,64.91
2023-01-17T20:02:28.801Z,62.95
2023-01-17T20:05:32.255Z,63.31
2023-01-17T20:08:35.047Z,63.93
2023-01-17T20:11:36.851Z,64.10
2023-01-17T20:14:38.342Z,64.25
2023-01-17T20:17:39.833Z,63.93
2023-01-17T20:20:56.347Z,64.05
2023-01-17T20:24:00.353Z,64.18
2023-01-17T20:27:01.825Z,64.17
2023-01-17T20:30:19.291Z,64.42
2023-01-17T20:33:23.219Z,64.47
2023-01-17T20:36:26.623Z,64.50
2023-01-17T20:39:28.314Z,64.52
2023-01-17T20:42:29.782Z,64.90
2023-01-17T20:45:31.312Z,64.64
2023-01-17T20:48:33.232Z,64.69
2023-01-17T20:51:34.747Z,64.85
2023-01-17T20:54:36.304Z,64.85
2023-01-17T20:57:37.803Z,64.99
2023-01-17T21:00:40.290Z,65.04
2023-01-17T21:03:42.294Z,65.25
2023-01-17T21:06:44.417Z,65.41
2023-01-17T21:09:45.941Z,65.59
2023-01-17T21:12:47.426Z,65.82
2023-01-17T21:15:50.082Z,65.61
2023-01-17T21:18:52.539Z,65.55
2023-01-17T21:21:56.125Z,65.50
2023-01-17T21:24:58.686Z,65.13
2023-01-17T21:28:00.169Z,65.59
2023-01-17T21:31:19.347Z,65.71
2023-01-17T21:34:21.171Z,65.81
2023-01-17T21:37:22.620Z,65.94
2023-01-17T21:40:24.158Z,65.86
2023-01-17T21:43:25.628Z,65.93
2023-01-17T21:46:27.918Z,65.98
2023-01-17T21:49:29.424Z,65.92
2023-01-17T21:52:31.550Z,65.98
2023-01-17T21:55:51.568Z,66.01
2023-01-17T21:58:56.457Z,66.10
2023-01-17T22:01:58.296Z,65.86
2023-01-17T22:04:59.904Z,66.26
2023-01-17T22:08:15.228Z,66.15
2023-01-17T22:11:19.426Z,66.15
2023-01-17T22:14:20.927Z,66.05
2023-01-17T22:17:22.425Z,66.01
2023-01-17T22:20:23.905Z,65.92
2023-01-17T22:23:25.615Z,65.73
2023-01-17T22:26:29.578Z,65.73
2023-01-17T22:29:33.424Z,65.75
2023-01-17T22:32:34.896Z,65.84
2023-01-17T22:35:36.427Z,65.35
2023-01-17T22:38:37.889Z,65.75
2023-01-17T22:41:39.478Z,65.65
2023-01-17T22:44:41.005Z,65.62
2023-01-17T22:47:43.351Z,65.39
2023-01-17T22:50:44.861Z,65.53
2023-01-17T22:53:48.913Z,65.58
2023-01-17T22:56:50.380Z,65.46
2023-01-17T22:59:51.908Z,65.67
2023-01-17T23:02:53.390Z,65.61
2023-01-17T23:05:54.868Z,64.88
2023-01-17T23:08:59.984Z,65.42
2023-01-17T23:12:01.639Z,65.50
2023-01-17T23:15:22.234Z,65.37
2023-01-17T23:18:46.976Z,65.34
2023-01-17T23:22:08.428Z,65.29
2023-01-17T23:25:13.202Z,65.24
2023-01-17T23:28:20.636Z,65.18
2023-01-17T23:31:23.300Z,65.25
2023-01-17T23:34:24.813Z,65.11
2023-01-17T23:37:47.741Z,65.24
2023-01-17T23:41:07.748Z,65.08
2023-01-17T23:44:09.196Z,64.84
2023-01-17T23:47:10.673Z,65.27
2023-01-17T23:50:12.135Z,65.17
2023-01-17T23:53:22.104Z,65.34
2023-01-17T23:56:24.594Z,65.49
2023-01-17T23:59:26.091Z,65.50
